sensor_id;sensor_type;location;lat;lon;timestamp;P1;durP1;ratioP1;P2;durP2;ratioP2
51266;SDS011;37338;47.426;19.204;2023-11-21T00:01:31;35.30;;;22.87;;
51266;SDS011;37338;47.426;19.204;2023-11-21T00:03:57;34.23;;;23.33;;
51266;SDS011;37338;47.426;19.204;2023-11-21T00:06:23;42.33;;;23.20;;
51266;SDS011;37338;47.426;19.204;2023-11-21T00:08:48;32.80;;;23.13;;
51266;SDS011;37338;47.426;19.204;2023-11-21T00:11:13;30.00;;;20.80;;
51266;SDS011;37338;47.426;19.204;2023-11-21T00:13:39;31.80;;;20.50;;
51266;SDS011;37338;47.426;19.204;2023-11-21T00:16:04;31.47;;;20.00;;
51266;SDS011;37338;47.426;19.204;2023-11-21T00:18:30;29.43;;;18.77;;
51266;SDS011;37338;47.426;19.204;2023-11-21T00:20:55;32.70;;;19.97;;
51266;SDS011;37338;47.426;19.204;2023-11-21T00:23:23;29.20;;;20.43;;
51266;SDS011;37338;47.426;19.204;2023-11-21T00:25:49;27.10;;;19.50;;
51266;SDS011;37338;47.426;19.204;2023-11-21T00:28:14;23.73;;;18.03;;
51266;SDS011;37338;47.426;19.204;2023-11-21T00:30:40;33.30;;;18.53;;
51266;SDS011;37338;47.426;19.204;2023-11-21T00:33:05;31.50;;;18.30;;
51266;SDS011;37338;47.426;19.204;2023-11-21T00:35:30;25.63;;;16.93;;
51266;SDS011;37338;47.426;19.204;2023-11-21T00:37:56;26.03;;;18.57;;
51266;SDS011;37338;47.426;19.204;2023-11-21T00:40:22;24.77;;;18.13;;
51266;SDS011;37338;47.426;19.204;2023-11-21T00:42:48;29.73;;;18.83;;
51266;SDS011;37338;47.426;19.204;2023-11-21T00:45:13;26.47;;;18.07;;
51266;SDS011;37338;47.426;19.204;2023-11-21T00:47:39;25.40;;;17.20;;
51266;SDS011;37338;47.426;19.204;2023-11-21T00:50:04;26.90;;;17.67;;
51266;SDS011;37338;47.426;19.204;2023-11-21T00:52:31;25.57;;;16.93;;
51266;SDS011;37338;47.426;19.204;2023-11-21T00:54:57;31.80;;;19.73;;
51266;SDS011;37338;47.426;19.204;2023-11-21T00:57:24;31.17;;;19.30;;
51266;SDS011;37338;47.426;19.204;2023-11-21T00:59:49;27.50;;;17.60;;
51266;SDS011;37338;47.426;19.204;2023-11-21T01:02:15;25.50;;;17.90;;
51266;SDS011;37338;47.426;19.204;2023-11-21T01:04:40;27.63;;;18.10;;
51266;SDS011;37338;47.426;19.204;2023-11-21T01:07:06;27.73;;;17.50;;
51266;SDS011;37338;47.426;19.204;2023-11-21T01:09:31;26.50;;;18.70;;
51266;SDS011;37338;47.426;19.204;2023-11-21T01:11:57;31.27;;;19.23;;
51266;SDS011;37338;47.426;19.204;2023-11-21T01:14:22;24.00;;;16.60;;
51266;SDS011;37338;47.426;19.204;2023-11-21T01:16:47;25.10;;;16.90;;
51266;SDS011;37338;47.426;19.204;2023-11-21T01:19:14;27.80;;;17.27;;
51266;SDS011;37338;47.426;19.204;2023-11-21T01:21:39;26.27;;;17.13;;
51266;SDS011;37338;47.426;19.204;2023-11-21T01:24:05;26.37;;;17.43;;
51266;SDS011;37338;47.426;19.204;2023-11-21T01:26:32;30.23;;;21.03;;
51266;SDS011;37338;47.426;19.204;2023-11-21T01:28:58;21.10;;;16.67;;
51266;SDS011;37338;47.426;19.204;2023-11-21T01:31:24;24.57;;;17.30;;
51266;SDS011;37338;47.426;19.204;2023-11-21T01:33:52;26.07;;;17.07;;
51266;SDS011;37338;47.426;19.204;2023-11-21T01:36:17;23.83;;;16.47;;
51266;SDS011;37338;47.426;19.204;2023-11-21T01:38:43;23.73;;;16.37;;
51266;SDS011;37338;47.426;19.204;2023-11-21T01:41:08;24.57;;;17.00;;
51266;SDS011;37338;47.426;19.204;2023-11-21T01:43:36;26.17;;;17.00;;
51266;SDS011;37338;47.426;19.204;2023-11-21T01:46:02;24.63;;;16.40;;
51266;SDS011;37338;47.426;19.204;2023-11-21T01:48:27;20.50;;;16.07;;
51266;SDS011;37338;47.426;19.204;2023-11-21T01:50:53;24.70;;;17.17;;
51266;SDS011;37338;47.426;19.204;2023-11-21T01:53:19;26.80;;;18.00;;
51266;SDS011;37338;47.426;19.204;2023-11-21T01:55:45;22.33;;;15.53;;
51266;SDS011;37338;47.426;19.204;2023-11-21T01:58:11;22.13;;;15.30;;
51266;SDS011;37338;47.426;19.204;2023-11-21T02:00:37;27.73;;;17.13;;
51266;SDS011;37338;47.426;19.204;2023-11-21T02:03:03;23.93;;;17.10;;
51266;SDS011;37338;47.426;19.204;2023-11-21T02:05:29;27.67;;;18.47;;
51266;SDS011;37338;47.426;19.204;2023-11-21T02:07:54;31.40;;;17.47;;
51266;SDS011;37338;47.426;19.204;2023-11-21T02:10:21;26.37;;;19.13;;
51266;SDS011;37338;47.426;19.204;2023-11-21T02:12:51;30.70;;;18.37;;
51266;SDS011;37338;47.426;19.204;2023-11-21T02:15:16;34.30;;;18.27;;
51266;SDS011;37338;47.426;19.204;2023-11-21T02:17:48;33.67;;;19.17;;
51266;SDS011;37338;47.426;19.204;2023-11-21T02:20:16;26.17;;;17.57;;
51266;SDS011;37338;47.426;19.204;2023-11-21T02:22:43;29.77;;;17.97;;
51266;SDS011;37338;47.426;19.204;2023-11-21T02:25:27;27.53;;;18.23;;
51266;SDS011;37338;47.426;19.204;2023-11-21T02:27:54;29.27;;;17.30;;
51266;SDS011;37338;47.426;19.204;2023-11-21T02:30:20;30.87;;;19.63;;
51266;SDS011;37338;47.426;19.204;2023-11-21T02:32:47;32.33;;;17.47;;
51266;SDS011;37338;47.426;19.204;2023-11-21T02:35:13;28.87;;;18.77;;
51266;SDS011;37338;47.426;19.204;2023-11-21T02:37:39;28.80;;;17.50;;
51266;SDS011;37338;47.426;19.204;2023-11-21T02:40:06;24.13;;;17.20;;
51266;SDS011;37338;47.426;19.204;2023-11-21T02:42:34;28.67;;;17.40;;
51266;SDS011;37338;47.426;19.204;2023-11-21T02:45:00;27.17;;;18.43;;
51266;SDS011;37338;47.426;19.204;2023-11-21T02:47:25;35.43;;;21.10;;
51266;SDS011;37338;47.426;19.204;2023-11-21T02:49:51;37.13;;;20.90;;
51266;SDS011;37338;47.426;19.204;2023-11-21T02:52:17;45.90;;;23.87;;
51266;SDS011;37338;47.426;19.204;2023-11-21T02:54:43;37.17;;;20.47;;
51266;SDS011;37338;47.426;19.204;2023-11-21T02:57:09;47.07;;;22.13;;
51266;SDS011;37338;47.426;19.204;2023-11-21T02:59:34;43.90;;;22.87;;
51266;SDS011;37338;47.426;19.204;2023-11-21T03:02:00;44.77;;;21.03;;
51266;SDS011;37338;47.426;19.204;2023-11-21T03:04:25;40.53;;;21.73;;
51266;SDS011;37338;47.426;19.204;2023-11-21T03:06:51;43.50;;;21.47;;
51266;SDS011;37338;47.426;19.204;2023-11-21T03:09:16;42.00;;;21.50;;
51266;SDS011;37338;47.426;19.204;2023-11-21T03:11:42;39.50;;;20.03;;
51266;SDS011;37338;47.426;19.204;2023-11-21T03:14:07;33.47;;;20.67;;
51266;SDS011;37338;47.426;19.204;2023-11-21T03:16:33;40.53;;;22.67;;
51266;SDS011;37338;47.426;19.204;2023-11-21T03:18:58;32.50;;;20.27;;
51266;SDS011;37338;47.426;19.204;2023-11-21T03:21:24;35.27;;;19.30;;
51266;SDS011;37338;47.426;19.204;2023-11-21T03:23:50;35.00;;;18.40;;
51266;SDS011;37338;47.426;19.204;2023-11-21T03:26:15;31.17;;;19.10;;
51266;SDS011;37338;47.426;19.204;2023-11-21T03:28:41;34.90;;;19.00;;
51266;SDS011;37338;47.426;19.204;2023-11-21T03:31:07;30.17;;;18.70;;
51266;SDS011;37338;47.426;19.204;2023-11-21T03:33:34;34.97;;;19.50;;
51266;SDS011;37338;47.426;19.204;2023-11-21T03:36:00;33.47;;;18.20;;
51266;SDS011;37338;47.426;19.204;2023-11-21T03:38:25;30.27;;;17.97;;
51266;SDS011;37338;47.426;19.204;2023-11-21T03:40:51;29.47;;;17.77;;
51266;SDS011;37338;47.426;19.204;2023-11-21T03:43:16;33.60;;;18.53;;
51266;SDS011;37338;47.426;19.204;2023-11-21T03:45:41;29.93;;;16.97;;
51266;SDS011;37338;47.426;19.204;2023-11-21T03:48:07;27.87;;;17.40;;
51266;SDS011;37338;47.426;19.204;2023-11-21T03:50:33;28.50;;;17.33;;
51266;SDS011;37338;47.426;19.204;2023-11-21T03:52:59;23.50;;;16.80;;
51266;SDS011;37338;47.426;19.204;2023-11-21T03:55:24;25.23;;;17.63;;
51266;SDS011;37338;47.426;19.204;2023-11-21T03:57:50;27.93;;;17.97;;
51266;SDS011;37338;47.426;19.204;2023-11-21T04:00:16;21.77;;;15.93;;
51266;SDS011;37338;47.426;19.204;2023-11-21T04:02:42;26.97;;;16.70;;
51266;SDS011;37338;47.426;19.204;2023-11-21T04:05:07;20.77;;;16.40;;
51266;SDS011;37338;47.426;19.204;2023-11-21T04:07:34;28.33;;;16.47;;
51266;SDS011;37338;47.426;19.204;2023-11-21T04:09:59;25.83;;;16.60;;
51266;SDS011;37338;47.426;19.204;2023-11-21T04:12:25;29.17;;;17.70;;
51266;SDS011;37338;47.426;19.204;2023-11-21T04:14:50;24.80;;;17.33;;
51266;SDS011;37338;47.426;19.204;2023-11-21T04:17:19;23.40;;;16.47;;
51266;SDS011;37338;47.426;19.204;2023-11-21T04:19:45;23.63;;;16.43;;
51266;SDS011;37338;47.426;19.204;2023-11-21T04:22:11;27.13;;;18.20;;
51266;SDS011;37338;47.426;19.204;2023-11-21T04:24:36;26.07;;;17.77;;
51266;SDS011;37338;47.426;19.204;2023-11-21T04:27:02;27.97;;;18.10;;
51266;SDS011;37338;47.426;19.204;2023-11-21T04:29:28;27.47;;;18.17;;
51266;SDS011;37338;47.426;19.204;2023-11-21T04:31:53;27.93;;;18.13;;
51266;SDS011;37338;47.426;19.204;2023-11-21T04:34:19;30.00;;;19.30;;
51266;SDS011;37338;47.426;19.204;2023-11-21T04:36:44;28.37;;;18.37;;
51266;SDS011;37338;47.426;19.204;2023-11-21T04:39:10;32.90;;;18.53;;
51266;SDS011;37338;47.426;19.204;2023-11-21T04:41:36;28.43;;;18.97;;
51266;SDS011;37338;47.426;19.204;2023-11-21T04:44:04;26.57;;;19.23;;
51266;SDS011;37338;47.426;19.204;2023-11-21T04:46:30;26.33;;;17.50;;
51266;SDS011;37338;47.426;19.204;2023-11-21T04:48:56;28.67;;;19.30;;
51266;SDS011;37338;47.426;19.204;2023-11-21T04:51:22;27.50;;;17.47;;
51266;SDS011;37338;47.426;19.204;2023-11-21T04:53:47;30.27;;;18.73;;
51266;SDS011;37338;47.426;19.204;2023-11-21T04:56:13;28.97;;;18.13;;
51266;SDS011;37338;47.426;19.204;2023-11-21T04:58:38;26.20;;;19.37;;
51266;SDS011;37338;47.426;19.204;2023-11-21T05:01:05;26.00;;;20.33;;
51266;SDS011;37338;47.426;19.204;2023-11-21T05:03:31;29.27;;;21.73;;
51266;SDS011;37338;47.426;19.204;2023-11-21T05:05:57;29.00;;;19.47;;
51266;SDS011;37338;47.426;19.204;2023-11-21T05:08:22;35.00;;;21.30;;
51266;SDS011;37338;47.426;19.204;2023-11-21T05:10:47;32.30;;;19.37;;
51266;SDS011;37338;47.426;19.204;2023-11-21T05:13:14;28.73;;;19.70;;
51266;SDS011;37338;47.426;19.204;2023-11-21T05:15:42;32.80;;;20.13;;
51266;SDS011;37338;47.426;19.204;2023-11-21T05:18:09;29.07;;;20.00;;
51266;SDS011;37338;47.426;19.204;2023-11-21T05:20:35;27.83;;;19.17;;
51266;SDS011;37338;47.426;19.204;2023-11-21T05:23:00;28.47;;;19.50;;
51266;SDS011;37338;47.426;19.204;2023-11-21T05:25:26;28.70;;;18.97;;
51266;SDS011;37338;47.426;19.204;2023-11-21T05:27:51;25.03;;;17.77;;
51266;SDS011;37338;47.426;19.204;2023-11-21T05:30:18;37.13;;;19.50;;
51266;SDS011;37338;47.426;19.204;2023-11-21T05:32:43;24.47;;;17.40;;
51266;SDS011;37338;47.426;19.204;2023-11-21T05:35:09;23.23;;;17.17;;
51266;SDS011;37338;47.426;19.204;2023-11-21T05:37:37;28.57;;;17.17;;
51266;SDS011;37338;47.426;19.204;2023-11-21T05:40:05;25.17;;;17.57;;
51266;SDS011;37338;47.426;19.204;2023-11-21T05:42:31;22.23;;;16.03;;
51266;SDS011;37338;47.426;19.204;2023-11-21T05:44:57;28.63;;;19.63;;
51266;SDS011;37338;47.426;19.204;2023-11-21T05:47:24;40.80;;;23.27;;
51266;SDS011;37338;47.426;19.204;2023-11-21T05:49:51;35.47;;;23.43;;
51266;SDS011;37338;47.426;19.204;2023-11-21T05:52:17;29.87;;;20.20;;
51266;SDS011;37338;47.426;19.204;2023-11-21T05:54:43;27.37;;;18.60;;
51266;SDS011;37338;47.426;19.204;2023-11-21T05:57:08;26.80;;;18.43;;
51266;SDS011;37338;47.426;19.204;2023-11-21T05:59:34;27.33;;;18.97;;
51266;SDS011;37338;47.426;19.204;2023-11-21T06:01:59;26.20;;;18.40;;
51266;SDS011;37338;47.426;19.204;2023-11-21T06:04:24;27.27;;;18.50;;
51266;SDS011;37338;47.426;19.204;2023-11-21T06:06:51;29.87;;;18.90;;
51266;SDS011;37338;47.426;19.204;2023-11-21T06:09:17;28.77;;;17.90;;
51266;SDS011;37338;47.426;19.204;2023-11-21T06:11:43;23.87;;;18.47;;
51266;SDS011;37338;47.426;19.204;2023-11-21T06:14:08;27.57;;;19.23;;
51266;SDS011;37338;47.426;19.204;2023-11-21T06:16:34;29.70;;;19.87;;
51266;SDS011;37338;47.426;19.204;2023-11-21T06:19:00;30.37;;;18.77;;
51266;SDS011;37338;47.426;19.204;2023-11-21T06:21:26;32.97;;;20.47;;
51266;SDS011;37338;47.426;19.204;2023-11-21T06:23:51;27.67;;;20.37;;
51266;SDS011;37338;47.426;19.204;2023-11-21T06:26:18;31.60;;;21.67;;
51266;SDS011;37338;47.426;19.204;2023-11-21T06:28:43;30.53;;;21.13;;
51266;SDS011;37338;47.426;19.204;2023-11-21T06:31:09;37.50;;;21.00;;
51266;SDS011;37338;47.426;19.204;2023-11-21T06:33:35;29.57;;;21.50;;
51266;SDS011;37338;47.426;19.204;2023-11-21T06:36:01;34.60;;;22.07;;
51266;SDS011;37338;47.426;19.204;2023-11-21T06:38:27;38.03;;;25.83;;
51266;SDS011;37338;47.426;19.204;2023-11-21T06:40:55;38.90;;;25.73;;
51266;SDS011;37338;47.426;19.204;2023-11-21T06:43:20;30.97;;;23.07;;
51266;SDS011;37338;47.426;19.204;2023-11-21T06:45:46;26.50;;;19.77;;
51266;SDS011;37338;47.426;19.204;2023-11-21T06:48:12;27.93;;;20.10;;
51266;SDS011;37338;47.426;19.204;2023-11-21T06:50:38;23.87;;;16.70;;
51266;SDS011;37338;47.426;19.204;2023-11-21T06:53:03;26.60;;;18.20;;
51266;SDS011;37338;47.426;19.204;2023-11-21T06:55:31;27.73;;;18.40;;
51266;SDS011;37338;47.426;19.204;2023-11-21T06:57:57;23.60;;;17.10;;
51266;SDS011;37338;47.426;19.204;2023-11-21T07:00:23;26.87;;;15.73;;
51266;SDS011;37338;47.426;19.204;2023-11-21T07:02:48;29.63;;;16.17;;
51266;SDS011;37338;47.426;19.204;2023-11-21T07:05:14;24.27;;;16.40;;
51266;SDS011;37338;47.426;19.204;2023-11-21T07:07:40;24.33;;;16.37;;
51266;SDS011;37338;47.426;19.204;2023-11-21T07:10:06;29.43;;;17.37;;
51266;SDS011;37338;47.426;19.204;2023-11-21T07:12:33;29.93;;;18.40;;
51266;SDS011;37338;47.426;19.204;2023-11-21T07:14:59;24.93;;;15.93;;
51266;SDS011;37338;47.426;19.204;2023-11-21T07:17:24;23.30;;;15.63;;
51266;SDS011;37338;47.426;19.204;2023-11-21T07:19:50;23.43;;;14.93;;
51266;SDS011;37338;47.426;19.204;2023-11-21T07:22:16;26.33;;;14.87;;
51266;SDS011;37338;47.426;19.204;2023-11-21T07:24:47;25.17;;;13.27;;
51266;SDS011;37338;47.426;19.204;2023-11-21T07:27:15;17.73;;;12.67;;
51266;SDS011;37338;47.426;19.204;2023-11-21T07:29:40;24.03;;;13.17;;
51266;SDS011;37338;47.426;19.204;2023-11-21T07:32:05;20.20;;;12.93;;
51266;SDS011;37338;47.426;19.204;2023-11-21T07:34:31;22.43;;;11.97;;
51266;SDS011;37338;47.426;19.204;2023-11-21T07:36:56;19.00;;;11.70;;
51266;SDS011;37338;47.426;19.204;2023-11-21T07:39:22;17.87;;;11.03;;
51266;SDS011;37338;47.426;19.204;2023-11-21T07:41:47;18.37;;;10.83;;
51266;SDS011;37338;47.426;19.204;2023-11-21T07:44:16;17.93;;;11.90;;
51266;SDS011;37338;47.426;19.204;2023-11-21T07:46:42;18.50;;;11.00;;
51266;SDS011;37338;47.426;19.204;2023-11-21T07:49:07;32.67;;;17.87;;
51266;SDS011;37338;47.426;19.204;2023-11-21T07:51:34;26.67;;;16.07;;
51266;SDS011;37338;47.426;19.204;2023-11-21T07:53:59;26.37;;;14.20;;
51266;SDS011;37338;47.426;19.204;2023-11-21T07:56:25;17.67;;;11.50;;
51266;SDS011;37338;47.426;19.204;2023-11-21T07:58:51;26.20;;;13.50;;
51266;SDS011;37338;47.426;19.204;2023-11-21T08:01:16;19.07;;;11.50;;
51266;SDS011;37338;47.426;19.204;2023-11-21T08:03:42;17.53;;;11.37;;
51266;SDS011;37338;47.426;19.204;2023-11-21T08:06:09;20.43;;;11.30;;
51266;SDS011;37338;47.426;19.204;2023-11-21T08:08:34;16.10;;;9.77;;
51266;SDS011;37338;47.426;19.204;2023-11-21T08:11:00;18.40;;;12.43;;
51266;SDS011;37338;47.426;19.204;2023-11-21T08:13:27;14.13;;;9.97;;
51266;SDS011;37338;47.426;19.204;2023-11-21T08:15:56;15.20;;;9.17;;
51266;SDS011;37338;47.426;19.204;2023-11-21T08:18:26;18.30;;;9.65;;
51266;SDS011;37338;47.426;19.204;2023-11-21T08:20:52;18.77;;;9.13;;
51266;SDS011;37338;47.426;19.204;2023-11-21T08:23:20;15.17;;;8.93;;
51266;SDS011;37338;47.426;19.204;2023-11-21T08:25:45;15.27;;;8.57;;
51266;SDS011;37338;47.426;19.204;2023-11-21T08:28:11;13.77;;;8.27;;
51266;SDS011;37338;47.426;19.204;2023-11-21T08:30:39;16.33;;;8.20;;
51266;SDS011;37338;47.426;19.204;2023-11-21T08:33:06;14.53;;;8.30;;
51266;SDS011;37338;47.426;19.204;2023-11-21T08:35:33;16.17;;;8.87;;
51266;SDS011;37338;47.426;19.204;2023-11-21T08:37:59;14.93;;;7.67;;
51266;SDS011;37338;47.426;19.204;2023-11-21T08:40:24;14.50;;;9.20;;
51266;SDS011;37338;47.426;19.204;2023-11-21T08:42:50;14.37;;;9.53;;
51266;SDS011;37338;47.426;19.204;2023-11-21T08:45:17;18.63;;;8.77;;
51266;SDS011;37338;47.426;19.204;2023-11-21T08:47:43;14.20;;;8.53;;
51266;SDS011;37338;47.426;19.204;2023-11-21T08:50:09;13.13;;;7.63;;
51266;SDS011;37338;47.426;19.204;2023-11-21T08:52:37;13.53;;;8.10;;
51266;SDS011;37338;47.426;19.204;2023-11-21T08:55:02;13.93;;;7.33;;
51266;SDS011;37338;47.426;19.204;2023-11-21T08:57:33;14.87;;;7.63;;
51266;SDS011;37338;47.426;19.204;2023-11-21T09:00:00;14.40;;;7.43;;
51266;SDS011;37338;47.426;19.204;2023-11-21T09:02:26;13.83;;;8.20;;
51266;SDS011;37338;47.426;19.204;2023-11-21T09:04:51;14.43;;;6.83;;
51266;SDS011;37338;47.426;19.204;2023-11-21T09:07:18;15.17;;;7.20;;
51266;SDS011;37338;47.426;19.204;2023-11-21T09:09:45;17.53;;;7.70;;
51266;SDS011;37338;47.426;19.204;2023-11-21T09:12:14;18.33;;;8.47;;
51266;SDS011;37338;47.426;19.204;2023-11-21T09:14:40;13.73;;;7.47;;
51266;SDS011;37338;47.426;19.204;2023-11-21T09:17:07;13.90;;;7.77;;
51266;SDS011;37338;47.426;19.204;2023-11-21T09:19:36;11.20;;;7.13;;
51266;SDS011;37338;47.426;19.204;2023-11-21T09:22:10;15.03;;;8.03;;
51266;SDS011;37338;47.426;19.204;2023-11-21T09:24:35;12.30;;;6.50;;
51266;SDS011;37338;47.426;19.204;2023-11-21T09:27:01;14.03;;;6.10;;
51266;SDS011;37338;47.426;19.204;2023-11-21T09:29:26;18.77;;;6.50;;
51266;SDS011;37338;47.426;19.204;2023-11-21T09:31:52;17.93;;;8.87;;
51266;SDS011;37338;47.426;19.204;2023-11-21T09:34:20;15.27;;;8.43;;
51266;SDS011;37338;47.426;19.204;2023-11-21T09:36:46;16.70;;;9.33;;
51266;SDS011;37338;47.426;19.204;2023-11-21T09:39:12;14.77;;;9.50;;
51266;SDS011;37338;47.426;19.204;2023-11-21T09:45:14;18.10;;;9.60;;
51266;SDS011;37338;47.426;19.204;2023-11-21T09:47:38;20.53;;;11.87;;
51266;SDS011;37338;47.426;19.204;2023-11-21T09:50:06;23.63;;;13.03;;
51266;SDS011;37338;47.426;19.204;2023-11-21T09:52:34;28.00;;;12.07;;
51266;SDS011;37338;47.426;19.204;2023-11-21T09:55:15;27.77;;;12.07;;
51266;SDS011;37338;47.426;19.204;2023-11-21T09:57:43;24.37;;;12.00;;
51266;SDS011;37338;47.426;19.204;2023-11-21T10:00:10;16.40;;;11.23;;
51266;SDS011;37338;47.426;19.204;2023-11-21T10:02:37;22.43;;;10.30;;
51266;SDS011;37338;47.426;19.204;2023-11-21T10:05:03;23.83;;;9.93;;
51266;SDS011;37338;47.426;19.204;2023-11-21T10:07:29;16.97;;;9.13;;
51266;SDS011;37338;47.426;19.204;2023-11-21T10:09:57;19.33;;;9.90;;
51266;SDS011;37338;47.426;19.204;2023-11-21T10:12:23;21.97;;;9.70;;
51266;SDS011;37338;47.426;19.204;2023-11-21T10:14:49;13.97;;;9.60;;
51266;SDS011;37338;47.426;19.204;2023-11-21T10:17:17;15.13;;;9.73;;
51266;SDS011;37338;47.426;19.204;2023-11-21T10:19:48;20.60;;;11.00;;
51266;SDS011;37338;47.426;19.204;2023-11-21T10:22:17;20.17;;;10.00;;
51266;SDS011;37338;47.426;19.204;2023-11-21T10:24:42;23.80;;;9.67;;
51266;SDS011;37338;47.426;19.204;2023-11-21T10:27:08;24.53;;;11.77;;
51266;SDS011;37338;47.426;19.204;2023-11-21T10:29:34;25.23;;;13.43;;
51266;SDS011;37338;47.426;19.204;2023-11-21T10:32:01;19.90;;;11.90;;
51266;SDS011;37338;47.426;19.204;2023-11-21T10:34:27;24.80;;;12.87;;
51266;SDS011;37338;47.426;19.204;2023-11-21T10:36:53;27.33;;;13.40;;
51266;SDS011;37338;47.426;19.204;2023-11-21T10:39:21;27.33;;;14.13;;
51266;SDS011;37338;47.426;19.204;2023-11-21T10:41:49;25.63;;;14.63;;
51266;SDS011;37338;47.426;19.204;2023-11-21T10:44:15;30.37;;;15.30;;
51266;SDS011;37338;47.426;19.204;2023-11-21T10:46:52;24.97;;;15.67;;
51266;SDS011;37338;47.426;19.204;2023-11-21T10:49:21;26.53;;;16.17;;
51266;SDS011;37338;47.426;19.204;2023-11-21T10:51:49;33.73;;;15.87;;
51266;SDS011;37338;47.426;19.204;2023-11-21T10:54:20;25.20;;;14.00;;
51266;SDS011;37338;47.426;19.204;2023-11-21T10:56:50;27.87;;;13.50;;
51266;SDS011;37338;47.426;19.204;2023-11-21T10:59:18;17.97;;;11.50;;
51266;SDS011;37338;47.426;19.204;2023-11-21T11:01:45;24.67;;;11.20;;
51266;SDS011;37338;47.426;19.204;2023-11-21T11:04:11;22.73;;;11.30;;
51266;SDS011;37338;47.426;19.204;2023-11-21T11:06:52;22.93;;;10.53;;
51266;SDS011;37338;47.426;19.204;2023-11-21T11:09:20;22.63;;;10.73;;
51266;SDS011;37338;47.426;19.204;2023-11-21T11:11:45;20.87;;;10.60;;
51266;SDS011;37338;47.426;19.204;2023-11-21T11:14:12;19.13;;;10.63;;
51266;SDS011;37338;47.426;19.204;2023-11-21T11:16:38;14.53;;;9.57;;
51266;SDS011;37338;47.426;19.204;2023-11-21T11:19:08;19.27;;;9.93;;
51266;SDS011;37338;47.426;19.204;2023-11-21T11:27:06;20.20;;;11.68;;
51266;SDS011;37338;47.426;19.204;2023-11-21T11:32:40;21.00;;;12.40;;
51266;SDS011;37338;47.426;19.204;2023-11-21T11:35:30;19.03;;;10.40;;
51266;SDS011;37338;47.426;19.204;2023-11-21T11:38:01;21.03;;;11.17;;
51266;SDS011;37338;47.426;19.204;2023-11-21T11:40:45;20.30;;;11.40;;
51266;SDS011;37338;47.426;19.204;2023-11-21T11:43:11;22.23;;;12.40;;
51266;SDS011;37338;47.426;19.204;2023-11-21T11:45:37;16.50;;;10.73;;
51266;SDS011;37338;47.426;19.204;2023-11-21T11:48:07;24.33;;;11.27;;
51266;SDS011;37338;47.426;19.204;2023-11-21T11:50:32;23.00;;;11.33;;
51266;SDS011;37338;47.426;19.204;2023-11-21T11:53:12;15.33;;;9.17;;
51266;SDS011;37338;47.426;19.204;2023-11-21T11:55:38;17.73;;;9.77;;
51266;SDS011;37338;47.426;19.204;2023-11-21T11:58:05;13.80;;;7.20;;
51266;SDS011;37338;47.426;19.204;2023-11-21T12:02:58;16.90;;;9.00;;
51266;SDS011;37338;47.426;19.204;2023-11-21T12:05:27;12.43;;;7.37;;
51266;SDS011;37338;47.426;19.204;2023-11-21T12:07:53;19.37;;;8.40;;
51266;SDS011;37338;47.426;19.204;2023-11-21T12:10:27;13.13;;;8.13;;
51266;SDS011;37338;47.426;19.204;2023-11-21T12:12:54;16.70;;;8.77;;
51266;SDS011;37338;47.426;19.204;2023-11-21T12:15:21;14.17;;;8.00;;
51266;SDS011;37338;47.426;19.204;2023-11-21T12:17:47;25.27;;;8.50;;
51266;SDS011;37338;47.426;19.204;2023-11-21T12:20:14;18.48;;;9.20;;
51266;SDS011;37338;47.426;19.204;2023-11-21T12:22:43;23.47;;;8.00;;
51266;SDS011;37338;47.426;19.204;2023-11-21T12:25:09;15.90;;;7.80;;
51266;SDS011;37338;47.426;19.204;2023-11-21T12:27:34;17.30;;;7.13;;
51266;SDS011;37338;47.426;19.204;2023-11-21T12:30:00;15.38;;;7.88;;
51266;SDS011;37338;47.426;19.204;2023-11-21T12:32:25;12.37;;;7.47;;
51266;SDS011;37338;47.426;19.204;2023-11-21T12:34:51;14.00;;;7.10;;
51266;SDS011;37338;47.426;19.204;2023-11-21T12:37:17;16.93;;;9.13;;
51266;SDS011;37338;47.426;19.204;2023-11-21T12:39:43;13.30;;;8.30;;
51266;SDS011;37338;47.426;19.204;2023-11-21T12:42:08;16.40;;;11.37;;
51266;SDS011;37338;47.426;19.204;2023-11-21T12:44:35;20.10;;;9.00;;
51266;SDS011;37338;47.426;19.204;2023-11-21T12:47:01;13.50;;;7.22;;
51266;SDS011;37338;47.426;19.204;2023-11-21T12:49:26;14.97;;;8.73;;
51266;SDS011;37338;47.426;19.204;2023-11-21T12:51:53;16.47;;;9.93;;
51266;SDS011;37338;47.426;19.204;2023-11-21T12:54:19;11.43;;;6.97;;
51266;SDS011;37338;47.426;19.204;2023-11-21T12:56:45;11.30;;;7.97;;
51266;SDS011;37338;47.426;19.204;2023-11-21T12:59:12;19.23;;;7.03;;
51266;SDS011;37338;47.426;19.204;2023-11-21T13:01:43;10.17;;;6.83;;
51266;SDS011;37338;47.426;19.204;2023-11-21T13:04:10;12.80;;;7.57;;
51266;SDS011;37338;47.426;19.204;2023-11-21T13:06:35;14.03;;;8.57;;
51266;SDS011;37338;47.426;19.204;2023-11-21T13:09:05;14.13;;;8.53;;
51266;SDS011;37338;47.426;19.204;2023-11-21T13:11:35;22.27;;;9.38;;
51266;SDS011;37338;47.426;19.204;2023-11-21T13:14:01;12.05;;;9.18;;
51266;SDS011;37338;47.426;19.204;2023-11-21T13:16:28;17.08;;;10.27;;
51266;SDS011;37338;47.426;19.204;2023-11-21T13:18:55;25.27;;;11.20;;
51266;SDS011;37338;47.426;19.204;2023-11-21T13:21:20;14.80;;;8.70;;
51266;SDS011;37338;47.426;19.204;2023-11-21T13:23:47;18.27;;;9.10;;
51266;SDS011;37338;47.426;19.204;2023-11-21T13:26:13;23.80;;;10.13;;
51266;SDS011;37338;47.426;19.204;2023-11-21T13:28:40;17.40;;;10.73;;
51266;SDS011;37338;47.426;19.204;2023-11-21T13:31:10;13.90;;;8.30;;
51266;SDS011;37338;47.426;19.204;2023-11-21T13:33:46;18.23;;;9.90;;
51266;SDS011;37338;47.426;19.204;2023-11-21T13:36:21;17.17;;;10.67;;
51266;SDS011;37338;47.426;19.204;2023-11-21T13:38:49;18.40;;;10.90;;
51266;SDS011;37338;47.426;19.204;2023-11-21T13:41:15;16.33;;;11.10;;
51266;SDS011;37338;47.426;19.204;2023-11-21T13:43:40;16.95;;;11.23;;
51266;SDS011;37338;47.426;19.204;2023-11-21T13:46:09;19.40;;;11.97;;
51266;SDS011;37338;47.426;19.204;2023-11-21T13:48:45;19.43;;;12.10;;
51266;SDS011;37338;47.426;19.204;2023-11-21T13:51:21;22.40;;;13.07;;
51266;SDS011;37338;47.426;19.204;2023-11-21T13:53:55;24.97;;;13.27;;
51266;SDS011;37338;47.426;19.204;2023-11-21T13:56:21;27.90;;;14.70;;
51266;SDS011;37338;47.426;19.204;2023-11-21T13:58:52;20.87;;;11.80;;
51266;SDS011;37338;47.426;19.204;2023-11-21T14:01:19;24.40;;;13.10;;
51266;SDS011;37338;47.426;19.204;2023-11-21T14:04:00;23.57;;;14.10;;
51266;SDS011;37338;47.426;19.204;2023-11-21T14:06:38;24.03;;;12.73;;
51266;SDS011;37338;47.426;19.204;2023-11-21T14:09:17;21.97;;;13.13;;
51266;SDS011;37338;47.426;19.204;2023-11-21T14:14:21;23.50;;;16.30;;
51266;SDS011;37338;47.426;19.204;2023-11-21T14:16:49;39.90;;;16.87;;
51266;SDS011;37338;47.426;19.204;2023-11-21T14:19:14;33.97;;;17.13;;
51266;SDS011;37338;47.426;19.204;2023-11-21T14:21:43;31.07;;;15.00;;
51266;SDS011;37338;47.426;19.204;2023-11-21T14:24:09;28.47;;;15.70;;
51266;SDS011;37338;47.426;19.204;2023-11-21T14:26:35;37.50;;;16.20;;